Time;durP1;ratioP1;P1;durP2;ratioP2;P2;SDS_P1;SDS_P2;PMS_P1;PMS_P2;Temp;Humidity;BMP_temperature;BMP_pressure;BME280_temperature;BME280_humidity;BME280_pressure;Samples;Min_cycle;Max_cycle;Signal;HPM_P1;HPM_P2
2020/12/13 00:00:33;;;;;;;11.73;8.05;;;22.90;47.70;;;;;;5032143;28;45437;-59
2020/12/13 00:02:59;;;;;;;11.85;7.45;;;22.90;47.70;;;;;;5048707;28;45440;-60
2020/12/13 00:05:25;;;;;;;10.77;7.32;;;22.90;47.80;;;;;;5032330;28;45343;-60
2020/12/13 00:07:50;;;;;;;10.25;7.43;;;22.90;47.90;;;;;;5031722;28;47134;-60
2020/12/13 00:10:17;;;;;;;11.65;7.53;;;22.90;47.80;;;;;;5031995;28;45245;-60
2020/12/13 00:12:42;;;;;;;11.85;7.88;;;22.90;47.90;;;;;;5032051;28;45428;-60
2020/12/13 00:15:08;;;;;;;9.43;7.32;;;22.90;47.90;;;;;;5032187;28;45156;-60
2020/12/13 00:17:34;;;;;;;13.38;8.18;;;22.90;48.50;;;;;;5031634;28;45982;-60
2020/12/13 00:19:59;;;;;;;10.02;7.45;;;22.90;48.00;;;;;;5031767;28;45275;-60
2020/12/13 00:22:25;;;;;;;10.93;7.68;;;22.90;48.00;;;;;;5048281;28;45264;-60
2020/12/13 00:24:51;;;;;;;10.95;7.72;;;22.90;48.00;;;;;;5032280;28;45669;-60
2020/12/13 00:27:16;;;;;;;10.27;7.68;;;22.80;48.00;;;;;;5031639;28;45649;-60
2020/12/13 00:29:42;;;;;;;9.43;7.60;;;22.80;48.00;;;;;;5031052;28;45498;-60
2020/12/13 00:32:08;;;;;;;10.38;6.72;;;22.80;48.00;;;;;;5030598;28;45360;-60
2020/12/13 00:34:34;;;;;;;10.80;7.05;;;22.80;48.00;;;;;;5032198;28;45548;-60
2020/12/13 00:37:00;;;;;;;9.65;7.40;;;22.80;48.00;;;;;;5048036;28;47029;-60
2020/12/13 00:39:26;;;;;;;9.38;6.97;;;22.80;48.00;;;;;;5037144;28;45359;-60
2020/12/13 00:41:52;;;;;;;10.63;7.05;;;22.80;48.10;;;;;;5011669;28;45276;-60
2020/12/13 00:44:18;;;;;;;9.32;6.85;;;22.80;48.20;;;;;;5028634;28;45201;-60
2020/12/13 00:46:44;;;;;;;9.90;7.53;;;22.70;48.10;;;;;;5011423;28;45406;-60
2020/12/13 00:49:09;;;;;;;9.85;7.78;;;22.70;48.10;;;;;;5011585;28;45219;-60
2020/12/13 00:51:35;;;;;;;11.13;7.55;;;22.70;48.10;;;;;;5028019;28;45327;-60
2020/12/13 00:54:01;;;;;;;9.27;6.65;;;22.70;48.10;;;;;;5011623;28;45323;-60
2020/12/13 00:56:26;;;;;;;10.23;7.35;;;22.70;48.10;;;;;;5011284;28;45353;-60
2020/12/13 00:58:52;;;;;;;9.00;6.55;;;22.70;48.20;;;;;;5011302;28;45557;-60
2020/12/13 01:01:18;;;;;;;10.27;7.07;;;22.70;48.20;;;;;;5011368;28;45416;-60
2020/12/13 01:03:43;;;;;;;9.95;7.00;;;22.70;48.20;;;;;;5011761;28;45566;-60
2020/12/13 01:06:09;;;;;;;9.45;7.07;;;22.70;48.20;;;;;;5011176;28;46993;-60
2020/12/13 01:08:34;;;;;;;10.15;6.78;;;22.70;48.30;;;;;;5027478;28;45401;-60
2020/12/13 01:11:00;;;;;;;10.48;7.45;;;22.70;48.20;;;;;;5011208;28;45462;-60
2020/12/13 01:13:26;;;;;;;9.55;6.40;;;22.70;48.20;;;;;;5011723;28;45563;-60
2020/12/13 01:15:53;;;;;;;10.77;7.25;;;22.70;48.80;;;;;;5027558;28;47306;-60
2020/12/13 01:18:19;;;;;;;10.40;7.75;;;22.70;48.20;;;;;;5011172;28;45415;-60
2020/12/13 01:20:45;;;;;;;9.32;6.93;;;22.70;48.20;;;;;;5011298;28;45320;-60
2020/12/13 01:23:11;;;;;;;9.50;6.43;;;22.70;48.20;;;;;;5011416;28;45553;-60
2020/12/13 01:25:36;;;;;;;9.50;6.57;;;22.60;48.20;;;;;;5010710;28;46251;-60
2020/12/13 01:28:02;;;;;;;8.65;7.03;;;22.60;48.20;;;;;;5010059;28;45456;-59
2020/12/13 01:30:27;;;;;;;9.63;6.88;;;22.60;48.30;;;;;;5011051;28;45373;-60
2020/12/13 01:32:53;;;;;;;9.25;7.28;;;22.60;48.30;;;;;;5011319;28;45454;-60
2020/12/13 01:35:19;;;;;;;9.20;6.88;;;22.60;48.30;;;;;;5010683;28;46256;-60
2020/12/13 01:37:45;;;;;;;9.73;7.00;;;22.60;48.30;;;;;;5010642;28;45360;-60
2020/12/13 01:40:10;;;;;;;9.63;7.30;;;22.60;48.30;;;;;;5044434;28;45294;-60
2020/12/13 01:42:43;;;;;;;9.18;6.80;;;22.50;48.30;;;;;;5030750;28;45328;-60
2020/12/13 01:45:13;;;;;;;9.05;6.90;;;22.60;48.40;;;;;;5047813;28;46259;-60
2020/12/13 01:47:39;;;;;;;10.93;7.18;;;22.60;48.40;;;;;;5048396;28;45200;-60
2020/12/13 01:50:08;;;;;;;8.90;6.15;;;22.50;48.30;;;;;;5030326;28;45417;-60
2020/12/13 01:55:09;;;;;;;8.02;5.72;;;22.50;48.40;;;;;;5028492;28;45901;-59
2020/12/13 01:57:36;;;;;;;10.05;6.60;;;22.50;48.40;;;;;;5030307;28;45454;-59
2020/12/13 02:00:13;;;;;;;9.02;6.15;;;22.50;48.40;;;;;;5047043;28;45325;-60
2020/12/13 02:02:43;;;;;;;9.75;6.43;;;22.50;48.40;;;;;;5030905;28;45265;-60
2020/12/13 02:05:08;;;;;;;9.25;6.55;;;22.50;48.40;;;;;;5047936;28;46313;-60
2020/12/13 02:07:36;;;;;;;10.00;7.20;;;22.50;48.40;;;;;;5030065;28;45343;-60
2020/12/13 02:10:04;;;;;;;10.05;6.95;;;22.50;48.50;;;;;;5030381;28;45282;-60
2020/12/13 02:12:29;;;;;;;9.48;6.43;;;22.40;48.40;;;;;;5031101;28;45220;-60
2020/12/13 02:14:55;;;;;;;9.18;6.70;;;22.50;48.50;;;;;;5029830;28;46851;-60
2020/12/13 02:17:21;;;;;;;9.57;7.10;;;22.50;48.50;;;;;;5030265;28;45351;-60
2020/12/13 02:19:46;;;;;;;8.43;6.35;;;22.50;48.50;;;;;;5030109;28;45411;-60
2020/12/13 02:22:12;;;;;;;8.93;5.90;;;22.40;48.40;;;;;;5030140;28;45673;-60
2020/12/13 02:24:38;;;;;;;7.97;6.20;;;22.40;48.40;;;;;;5029748;28;46912;-60
2020/12/13 02:27:08;;;;;;;9.88;6.70;;;22.40;48.40;;;;;;5030112;28;45418;-60
2020/12/13 02:29:35;;;;;;;8.35;5.80;;;22.40;48.40;;;;;;5029492;28;45501;-60
2020/12/13 02:32:01;;;;;;;8.68;6.35;;;22.40;48.40;;;;;;5037281;28;45629;-62
2020/12/13 02:34:27;;;;;;;8.13;5.63;;;22.40;48.40;;;;;;5066570;28;45402;-61
2020/12/13 02:36:52;;;;;;;9.15;6.47;;;22.40;48.40;;;;;;5065412;28;45406;-60
2020/12/13 02:39:18;;;;;;;8.20;6.60;;;22.40;48.40;;;;;;5040883;28;45449;-60
2020/12/13 02:41:56;;;;;;;9.07;5.97;;;22.40;48.40;;;;;;5067111;28;45608;-60
2020/12/13 02:44:24;;;;;;;8.40;6.28;;;22.40;48.40;;;;;;5066501;28;45892;-60
2020/12/13 02:46:49;;;;;;;8.65;5.57;;;22.40;48.40;;;;;;5065939;28;46759;-60
2020/12/13 02:49:15;;;;;;;8.77;6.35;;;22.40;48.40;;;;;;5066686;28;45316;-60
2020/12/13 02:51:41;;;;;;;10.65;6.22;;;22.40;48.50;;;;;;5067059;28;45529;-60
2020/12/13 02:54:06;;;;;;;9.00;6.78;;;22.40;48.40;;;;;;5066130;28;46263;-60
2020/12/13 02:56:32;;;;;;;8.32;6.07;;;22.40;48.40;;;;;;5068878;28;45313;-60
2020/12/13 02:58:58;;;;;;;9.35;6.95;;;22.40;48.40;;;;;;5070033;28;45417;-60
2020/12/13 03:01:27;;;;;;;7.93;6.07;;;22.40;48.40;;;;;;5070229;28;45601;-60
2020/12/13 03:03:52;;;;;;;8.00;5.75;;;22.40;48.40;;;;;;5069832;28;45293;-60
2020/12/13 03:06:18;;;;;;;8.95;6.07;;;22.40;48.40;;;;;;5069810;28;45248;-60
2020/12/13 03:08:43;;;;;;;8.65;6.30;;;22.40;48.30;;;;;;5070208;28;45361;-59
2020/12/13 03:11:09;;;;;;;9.45;6.80;;;22.50;48.20;;;;;;5070180;28;45428;-60
2020/12/13 03:13:35;;;;;;;8.05;6.28;;;22.50;48.20;;;;;;5069679;28;47160;-59
2020/12/13 03:16:00;;;;;;;8.15;5.80;;;22.50;48.10;;;;;;5069719;28;45282;-60
2020/12/13 03:18:26;;;;;;;8.70;6.72;;;22.50;48.10;;;;;;5069564;28;45407;-61
2020/12/13 03:20:51;;;;;;;8.90;6.35;;;22.60;48.10;;;;;;5070163;28;45322;-62
2020/12/13 03:23:17;;;;;;;7.70;6.10;;;22.60;48.10;;;;;;5069350;28;45608;-60
2020/12/13 03:25:43;;;;;;;9.38;5.90;;;22.60;48.00;;;;;;5069548;28;45400;-60
2020/12/13 03:28:09;;;;;;;7.57;5.30;;;22.70;48.00;;;;;;5069724;28;45443;-59
2020/12/13 03:30:34;;;;;;;9.32;6.50;;;22.70;47.90;;;;;;5069978;28;45636;-60
2020/12/13 03:33:00;;;;;;;8.52;5.97;;;22.70;48.00;;;;;;5069336;28;47334;-60
2020/12/13 03:35:26;;;;;;;7.55;5.38;;;22.80;48.00;;;;;;5069254;28;45251;-59
2020/12/13 03:37:51;;;;;;;7.78;5.57;;;22.80;48.00;;;;;;5069629;28;45508;-60
2020/12/13 03:40:17;;;;;;;7.75;6.03;;;22.80;47.90;;;;;;5051705;28;45518;-60
2020/12/13 03:42:43;;;;;;;8.05;6.22;;;22.90;47.90;;;;;;5032150;28;46186;-60
2020/12/13 03:45:09;;;;;;;7.47;5.25;;;22.90;47.80;;;;;;5048966;28;45313;-60
2020/12/13 03:47:35;;;;;;;8.02;5.05;;;22.90;47.70;;;;;;5032509;28;45283;-60
2020/12/13 03:50:02;;;;;;;7.55;5.80;;;22.90;47.50;;;;;;5032601;28;45641;-60
2020/12/13 03:52:28;;;;;;;7.88;5.80;;;22.90;47.60;;;;;;5048876;28;46284;-60
2020/12/13 03:54:53;;;;;;;8.88;6.20;;;23.00;47.60;;;;;;5032227;28;45450;-60
2020/12/13 03:57:19;;;;;;;6.70;5.65;;;23.00;47.70;;;;;;5032282;28;45328;-60
2020/12/13 03:59:44;;;;;;;8.05;6.35;;;23.00;47.60;;;;;;5050435;28;45497;-60
2020/12/13 04:02:10;;;;;;;8.13;5.78;;;23.00;47.50;;;;;;5031690;28;47430;-60
2020/12/13 04:04:36;;;;;;;7.47;4.85;;;23.10;47.60;;;;;;5032112;28;45225;-60
2020/12/13 04:07:01;;;;;;;7.43;5.28;;;23.10;47.50;;;;;;5031655;28;45220;-60
2020/12/13 04:09:27;;;;;;;8.00;5.82;;;23.10;47.40;;;;;;5032396;28;45465;-60
2020/12/13 04:11:53;;;;;;;6.68;5.13;;;23.10;47.40;;;;;;5031811;28;46474;-60
2020/12/13 04:14:18;;;;;;;7.95;5.57;;;23.10;47.40;;;;;;5031641;28;45334;-60
2020/12/13 04:16:44;;;;;;;8.65;5.95;;;23.10;47.40;;;;;;5031964;28;45359;-60
2020/12/13 04:19:10;;;;;;;8.15;5.65;;;23.20;47.50;;;;;;5032412;28;45289;-60
2020/12/13 04:21:37;;;;;;;9.10;5.40;;;23.20;47.40;;;;;;5031289;28;46218;-60
2020/12/13 04:24:03;;;;;;;8.95;5.00;;;23.20;47.40;;;;;;5031733;28;45327;-60
2020/12/13 04:26:28;;;;;;;7.60;4.60;;;23.20;47.30;;;;;;5048555;28;45385;-60
2020/12/13 04:28:54;;;;;;;7.60;4.80;;;23.20;47.30;;;;;;5032156;28;45490;-59
2020/12/13 04:31:21;;;;;;;8.80;5.90;;;23.20;47.30;;;;;;5031129;28;47108;-60
2020/12/13 04:33:46;;;;;;;8.40;4.80;;;23.20;47.20;;;;;;5048206;28;45406;-59
2020/12/13 04:36:12;;;;;;;7.57;4.97;;;23.30;47.30;;;;;;5031654;28;45246;-60
2020/12/13 04:38:38;;;;;;;8.38;5.28;;;23.30;47.30;;;;;;5027597;28;45412;-60
2020/12/13 04:41:03;;;;;;;8.30;5.13;;;23.30;47.20;;;;;;5027764;28;48388;-60
2020/12/13 04:43:29;;;;;;;8.18;4.93;;;23.30;47.20;;;;;;5011553;28;45328;-60
2020/12/13 04:45:55;;;;;;;7.47;4.95;;;23.30;47.10;;;;;;5027796;28;45312;-60
2020/12/13 04:48:21;;;;;;;8.00;5.10;;;23.30;47.10;;;;;;5012210;28;45514;-60
2020/12/13 04:50:48;;;;;;;8.27;5.07;;;23.30;47.10;;;;;;5011122;28;46349;-60
2020/12/13 04:53:14;;;;;;;7.25;5.22;;;23.40;47.10;;;;;;5027454;28;45356;-60
2020/12/13 04:55:53;;;;;;;9.57;5.03;;;23.40;47.00;;;;;;5011215;28;45367;-60
2020/12/13 04:58:23;;;;;;;6.70;4.88;;;23.40;47.00;;;;;;5013385;28;45256;-60
2020/12/13 05:01:07;;;;;;;7.47;4.90;;;23.40;47.00;;;;;;5034341;28;45363;-60
2020/12/13 05:03:34;;;;;;;6.82;4.82;;;23.40;46.90;;;;;;5048129;28;45394;-60
2020/12/13 05:06:01;;;;;;;7.50;5.20;;;23.40;46.90;;;;;;5047897;28;45425;-60
2020/12/13 05:08:30;;;;;;;7.03;4.55;;;23.40;46.90;;;;;;5048406;28;45308;-60
2020/12/13 05:10:56;;;;;;;7.50;4.75;;;23.40;46.80;;;;;;5047518;28;46555;-62
2020/12/13 05:13:22;;;;;;;6.38;4.55;;;23.40;46.80;;;;;;5047624;28;45295;-60
2020/12/13 05:15:47;;;;;;;7.30;4.82;;;23.40;46.80;;;;;;5047984;28;45441;-60
2020/12/13 05:18:13;;;;;;;6.70;4.65;;;23.40;46.80;;;;;;5047472;28;45640;-60
2020/12/13 05:20:39;;;;;;;6.65;4.68;;;23.50;46.80;;;;;;5047556;28;46921;-60
2020/12/13 05:23:04;;;;;;;6.13;4.60;;;23.50;46.80;;;;;;5047326;28;45372;-60
2020/12/13 05:25:37;;;;;;;5.95;4.20;;;23.50;46.80;;;;;;5047647;28;45501;-60
2020/12/13 05:28:04;;;;;;;6.60;4.70;;;23.50;46.70;;;;;;5048753;28;45398;-59
2020/12/13 05:30:49;;;;;;;6.78;4.43;;;23.50;46.80;;;;;;5047576;28;46951;-60
2020/12/13 05:36:16;;;;;;;7.82;4.43;;;23.60;46.70;;;;;;5047632;28;45616;-61
2020/12/13 05:38:41;;;;;;;6.47;4.47;;;23.60;46.70;;;;;;5038533;28;45669;-60
2020/12/13 05:41:09;;;;;;;6.97;4.20;;;23.60;46.70;;;;;;5026988;28;45991;-60
2020/12/13 05:43:52;;;;;;;6.10;4.45;;;23.70;46.70;;;;;;5043343;28;45411;-60
2020/12/13 05:54:19;;;;;;;6.45;4.45;;;23.80;46.60;;;;;;5039390;28;45542;-60
2020/12/13 05:56:47;;;;;;;5.75;4.22;;;23.80;46.60;;;;;;5028862;28;45557;-60
2020/12/13 05:59:13;;;;;;;7.30;4.60;;;23.80;46.60;;;;;;5028325;28;45636;-60
2020/12/13 06:01:38;;;;;;;5.63;4.32;;;23.90;46.60;;;;;;5010206;28;46950;-60
2020/12/13 06:04:09;;;;;;;6.25;4.28;;;23.90;46.50;;;;;;5009820;28;45423;-60
2020/12/13 06:06:34;;;;;;;6.30;4.22;;;23.90;46.50;;;;;;5028128;28;45261;-61
2020/12/13 06:09:27;;;;;;;5.43;3.83;;;23.90;46.50;;;;;;5040634;28;45533;-60
2020/12/13 06:11:52;;;;;;;6.50;4.38;;;24.00;46.50;;;;;;5038603;28;46018;-60
2020/12/13 06:14:22;;;;;;;6.40;4.10;;;23.90;46.40;;;;;;5026797;28;45298;-60
2020/12/13 06:16:48;;;;;;;9.95;4.32;;;24.00;46.50;;;;;;5020953;28;45450;-60
2020/12/13 06:19:16;;;;;;;7.45;4.47;;;24.00;46.50;;;;;;5047228;28;45457;-60
2020/12/13 06:21:42;;;;;;;6.97;4.30;;;23.90;46.40;;;;;;5031015;28;45942;-60
2020/12/13 06:24:08;;;;;;;6.15;3.83;;;24.00;46.40;;;;;;5031370;28;45391;-60
2020/12/13 06:26:34;;;;;;;6.25;4.28;;;24.00;46.40;;;;;;5023978;28;45366;-60
2020/12/13 06:29:00;;;;;;;6.72;4.32;;;24.10;46.40;;;;;;5046559;28;45247;-60
2020/12/13 06:31:26;;;;;;;6.55;4.15;;;24.10;46.40;;;;;;5048395;28;45393;-60
2020/12/13 06:33:51;;;;;;;5.95;3.88;;;24.10;46.40;;;;;;5049745;28;45369;-61
2020/12/13 06:36:22;;;;;;;6.78;4.30;;;24.10;46.30;;;;;;5050457;28;45305;-61
2020/12/13 06:38:47;;;;;;;6.93;3.60;;;24.10;46.30;;;;;;5047079;28;45396;-60
2020/12/13 06:41:13;;;;;;;5.93;4.07;;;24.10;46.30;;;;;;5029867;28;46072;-61
2020/12/13 06:43:57;;;;;;;5.50;4.05;;;24.20;46.30;;;;;;5029811;28;45262;-60
2020/12/13 06:46:23;;;;;;;5.82;4.22;;;24.20;46.20;;;;;;5031362;28;45497;-60
2020/12/13 06:48:49;;;;;;;6.50;4.57;;;24.20;46.30;;;;;;5034810;28;45526;-60
2020/12/13 06:51:24;;;;;;;6.80;4.57;;;24.20;46.20;;;;;;5022035;28;47500;-60
2020/12/13 06:53:50;;;;;;;6.03;3.58;;;24.30;46.20;;;;;;5037921;28;45275;-60
2020/12/13 06:56:16;;;;;;;6.60;4.25;;;24.30;46.20;;;;;;5021858;28;45673;-61
2020/12/13 06:58:43;;;;;;;5.63;3.88;;;24.30;46.20;;;;;;5020724;28;46334;-60
2020/12/13 07:01:19;;;;;;;6.30;4.38;;;24.30;46.20;;;;;;5028637;28;46274;-61
2020/12/13 07:03:45;;;;;;;6.55;4.60;;;24.30;46.10;;;;;;5038532;28;45370;-61
2020/12/13 07:06:17;;;;;;;5.00;3.67;;;24.30;46.20;;;;;;5020774;28;45603;-61
2020/12/13 07:08:47;;;;;;;6.65;4.45;;;24.30;46.10;;;;;;5021431;28;45459;-60
2020/12/13 07:11:13;;;;;;;5.97;4.28;;;24.30;46.00;;;;;;5022230;28;46997;-60
2020/12/13 07:13:38;;;;;;;5.85;4.35;;;24.30;46.10;;;;;;5022599;28;45419;-60
2020/12/13 07:16:10;;;;;;;6.38;4.28;;;24.30;46.00;;;;;;5020450;28;45236;-62
2020/12/13 07:18:36;;;;;;;5.50;3.90;;;24.30;46.10;;;;;;5040548;28;45462;-62
2020/12/13 07:21:02;;;;;;;5.35;4.05;;;24.30;46.10;;;;;;5020552;28;45319;-62
2020/12/13 07:23:28;;;;;;;9.90;4.90;;;24.30;46.00;;;;;;5022521;28;45202;-63
2020/12/13 07:25:53;;;;;;;14.07;5.68;;;24.30;46.00;;;;;;5021459;28;45184;-62
2020/12/13 07:28:19;;;;;;;9.38;5.28;;;24.30;45.70;;;;;;5021225;28;45578;-62
2020/12/13 07:30:45;;;;;;;11.07;6.18;;;24.20;45.60;;;;;;5022630;28;45990;-62
2020/12/13 07:33:10;;;;;;;18.88;6.80;;;24.20;45.40;;;;;;5020954;28;45298;-62
2020/12/13 07:35:36;;;;;;;8.35;5.63;;;24.20;45.30;;;;;;5027738;28;45485;-62
2020/12/13 07:38:02;;;;;;;10.75;5.75;;;24.20;45.10;;;;;;5025165;28;45511;-62
2020/12/13 07:40:28;;;;;;;7.97;5.95;;;24.20;45.00;;;;;;5021466;28;47414;-62
2020/12/13 07:42:57;;;;;;;12.63;6.22;;;24.20;44.80;;;;;;5037917;28;45548;-62
2020/12/13 07:45:23;;;;;;;10.48;6.30;;;24.20;44.60;;;;;;5039151;28;45489;-63
2020/12/13 07:48:00;;;;;;;6.85;5.40;;;24.20;44.50;;;;;;5025758;28;45407;-62
2020/12/13 07:50:45;;;;;;;8.88;5.60;;;24.20;43.80;;;;;;5035788;28;46520;-62
2020/12/13 07:53:11;;;;;;;8.05;5.40;;;24.20;44.00;;;;;;5024626;28;45378;-68
2020/12/13 07:55:42;;;;;;;8.80;6.70;;;24.20;43.60;;;;;;5021092;28;45250;-68
2020/12/13 07:58:08;;;;;;;8.45;5.80;;;24.10;41.90;;;;;;5036933;28;45540;-62
2020/12/13 08:00:34;;;;;;;9.98;6.70;;;24.00;43.50;;;;;;5022538;28;47125;-62
2020/12/13 08:03:00;;;;;;;9.82;7.72;;;24.00;40.10;;;;;;5020969;28;45381;-62
2020/12/13 08:05:26;;;;;;;11.18;8.68;;;23.70;38.20;;;;;;5019297;28;45238;-61
2020/12/13 08:08:01;;;;;;;10.20;7.45;;;23.60;37.60;;;;;;5039853;28;45537;-62
2020/12/13 08:10:30;;;;;;;10.27;7.88;;;23.50;36.70;;;;;;5017627;28;47029;-62
2020/12/13 08:12:57;;;;;;;9.57;7.60;;;23.30;37.20;;;;;;5022914;28;45465;-62
2020/12/13 08:15:23;;;;;;;10.43;7.68;;;23.20;37.10;;;;;;5037556;28;45508;-62
2020/12/13 08:18:07;;;;;;;12.20;8.15;;;23.00;36.90;;;;;;5022819;28;45650;-62
2020/12/13 08:20:39;;;;;;;13.25;8.40;;;22.90;36.20;;;;;;5037152;28;45442;-62
2020/12/13 08:23:06;;;;;;;10.63;8.13;;;22.70;36.50;;;;;;5020318;28;45387;-61
2020/12/13 08:25:35;;;;;;;9.23;7.40;;;22.60;37.00;;;;;;5018580;28;45381;-61
2020/12/13 08:28:02;;;;;;;10.30;7.55;;;22.60;37.50;;;;;;5041020;28;45610;-61
2020/12/13 08:30:27;;;;;;;10.27;7.88;;;22.60;37.70;;;;;;5027376;28;46976;-61
2020/12/13 08:32:55;;;;;;;9.60;6.65;;;22.50;37.90;;;;;;5048239;28;45410;-60
2020/12/13 08:35:21;;;;;;;12.02;6.97;;;22.50;38.70;;;;;;5051258;28;45402;-60
2020/12/13 08:38:00;;;;;;;9.52;6.07;;;22.60;38.90;;;;;;5032114;28;45681;-59
2020/12/13 08:40:45;;;;;;;18.55;6.22;;;22.70;40.50;;;;;;5030161;28;45371;-60
2020/12/13 08:43:12;;;;;;;9.43;6.25;;;22.80;41.70;;;;;;5028067;28;45267;-60
2020/12/13 08:45:38;;;;;;;12.30;6.35;;;22.80;42.80;;;;;;5013132;28;45315;-58
2020/12/13 08:48:04;;;;;;;12.20;6.28;;;22.90;43.30;;;;;;5024912;28;45805;-58
2020/12/13 08:50:42;;;;;;;8.30;5.80;;;22.90;43.50;;;;;;5015604;28;46197;-58
2020/12/13 08:53:24;;;;;;;9.73;6.07;;;23.00;43.90;;;;;;5024373;28;45295;-58
2020/12/13 08:56:12;;;;;;;9.63;5.88;;;23.10;44.20;;;;;;5028910;28;45347;-60
2020/12/13 08:58:57;;;;;;;10.30;5.45;;;23.20;44.80;;;;;;5031251;28;45613;-59
2020/12/13 09:01:27;;;;;;;9.07;4.90;;;23.20;44.50;;;;;;5009173;28;46434;-59
2020/12/13 09:03:53;;;;;;;9.88;5.05;;;23.20;44.30;;;;;;5019460;28;45839;-59
2020/12/13 09:06:32;;;;;;;8.52;4.93;;;23.30;44.60;;;;;;5047149;28;45406;-60
2020/12/13 09:09:08;;;;;;;9.13;5.05;;;23.40;45.10;;;;;;5047462;28;45496;-59
2020/12/13 09:11:34;;;;;;;10.60;5.70;;;23.40;45.00;;;;;;5031926;28;46534;-60
2020/12/13 09:13:59;;;;;;;10.65;5.03;;;23.40;45.10;;;;;;5067300;28;45418;-60
2020/12/13 09:16:29;;;;;;;9.55;4.68;;;23.40;45.20;;;;;;5067356;28;45354;-60
2020/12/13 09:19:05;;;;;;;10.27;4.55;;;23.50;45.30;;;;;;5067992;28;45465;-60
2020/12/13 09:22:00;;;;;;;7.78;4.30;;;23.50;45.30;;;;;;5067087;28;46103;-60
2020/12/13 09:24:32;;;;;;;;;;;23.50;45.70;;;;;;5058269;28;45338;-60
2020/12/13 09:27:08;;;;;;;8.75;4.28;;;23.50;45.60;;;;;;5067817;28;45381;-59
2020/12/13 09:29:37;;;;;;;7.68;4.50;;;23.60;45.90;;;;;;5066733;28;45604;-61
2020/12/13 09:32:03;;;;;;;8.68;4.38;;;23.60;45.70;;;;;;5066268;28;45319;-61
2020/12/13 09:34:29;;;;;;;8.52;5.25;;;23.60;45.90;;;;;;5067181;28;45287;-61
2020/12/13 09:36:54;;;;;;;9.18;4.13;;;23.60;46.00;;;;;;5067749;28;45295;-60
2020/12/13 09:39:20;;;;;;;8.75;4.45;;;23.60;46.10;;;;;;5057818;28;45435;-59
2020/12/13 09:41:46;;;;;;;9.60;4.57;;;23.60;46.30;;;;;;5030335;28;47065;-60
2020/12/13 09:44:12;;;;;;;8.43;4.18;;;23.60;46.40;;;;;;5030178;28;45395;-60
2020/12/13 09:46:38;;;;;;;8.57;4.45;;;23.50;46.30;;;;;;5036135;28;45341;-60
2020/12/13 09:49:04;;;;;;;6.18;3.80;;;23.60;46.60;;;;;;5062353;28;45637;-60
2020/12/13 09:51:29;;;;;;;9.25;4.70;;;23.50;46.40;;;;;;5030161;28;46146;-60
2020/12/13 09:53:55;;;;;;;7.68;4.25;;;23.60;46.50;;;;;;5047135;28;45490;-59
2020/12/13 09:56:20;;;;;;;10.02;4.78;;;23.60;46.40;;;;;;5030476;28;45364;-59
2020/12/13 09:58:46;;;;;;;6.88;3.58;;;23.60;46.40;;;;;;5030648;28;45214;-60
2020/12/13 10:01:13;;;;;;;5.57;3.88;;;23.70;46.30;;;;;;5030163;28;45447;-60
2020/12/13 10:03:41;;;;;;;6.43;4.00;;;23.70;46.30;;;;;;5030394;28;45332;-59
2020/12/13 10:06:30;;;;;;;6.20;3.92;;;23.70;46.40;;;;;;5046901;28;45322;-59
2020/12/13 10:11:30;;;;;;;6.82;3.75;;;23.80;46.50;;;;;;5042275;28;45921;-60
2020/12/13 10:13:56;;;;;;;8.60;4.53;;;23.70;46.60;;;;;;5039929;28;45602;-60
2020/12/13 10:16:22;;;;;;;8.38;3.47;;;23.80;46.40;;;;;;5021454;28;45495;-58
2020/12/13 10:18:48;;;;;;;6.57;3.65;;;23.80;46.30;;;;;;5039487;28;45620;-61
2020/12/13 10:21:22;;;;;;;6.70;3.70;;;23.80;46.40;;;;;;5018810;28;46909;-60
2020/12/13 10:23:48;;;;;;;7.03;3.40;;;23.90;46.80;;;;;;5037320;28;45189;-59
2020/12/13 10:26:13;;;;;;;7.78;4.32;;;23.80;46.60;;;;;;5018131;28;45437;-60
2020/12/13 10:28:39;;;;;;;8.02;4.75;;;23.80;46.60;;;;;;5020762;28;45520;-60
2020/12/13 10:31:05;;;;;;;8.85;4.35;;;23.80;46.70;;;;;;5041652;28;46160;-60
2020/12/13 10:33:30;;;;;;;7.18;3.60;;;23.90;46.70;;;;;;5039595;28;45375;-59
2020/12/13 10:35:56;;;;;;;8.38;3.47;;;23.90;46.60;;;;;;5018839;28;45505;-60
2020/12/13 10:38:22;;;;;;;7.55;4.15;;;23.90;46.60;;;;;;5036013;28;45448;-60
2020/12/13 10:40:47;;;;;;;7.88;3.53;;;23.90;46.60;;;;;;5044802;28;45770;-59
2020/12/13 10:43:13;;;;;;;16.17;4.47;;;23.90;46.70;;;;;;5038042;28;45384;-59
2020/12/13 10:45:39;;;;;;;8.48;4.22;;;23.90;46.90;;;;;;5022643;28;45478;-59
2020/12/13 10:48:04;;;;;;;11.18;4.20;;;23.90;47.30;;;;;;5029096;28;45580;-60
2020/12/13 10:50:37;;;;;;;10.35;4.65;;;23.90;47.20;;;;;;5028413;28;46626;-60
2020/12/13 10:53:04;;;;;;;10.57;5.93;;;23.90;47.80;;;;;;5026082;28;45403;-60
2020/12/13 10:55:29;;;;;;;7.45;4.30;;;23.90;47.20;;;;;;5009896;28;45461;-59
2020/12/13 10:57:55;;;;;;;8.68;4.60;;;23.90;47.20;;;;;;5010107;28;45526;-60
2020/12/13 11:00:23;;;;;;;6.97;4.35;;;23.90;47.20;;;;;;5022728;28;45986;-59
2020/12/13 11:02:49;;;;;;;9.90;4.13;;;23.90;47.20;;;;;;5026197;28;45417;-59
2020/12/13 11:05:15;;;;;;;7.55;4.30;;;23.90;47.30;;;;;;5035568;28;45280;-59
2020/12/13 11:07:41;;;;;;;7.72;4.47;;;23.90;47.30;;;;;;5026700;28;45291;-59
2020/12/13 11:10:06;;;;;;;7.50;4.22;;;23.90;47.50;;;;;;5045720;28;45416;-59
2020/12/13 11:12:32;;;;;;;11.10;4.07;;;23.90;47.60;;;;;;5045801;28;45279;-59
2020/12/13 11:14:57;;;;;;;6.43;4.20;;;23.90;47.80;;;;;;5046196;28;46229;-60
2020/12/13 11:17:23;;;;;;;10.65;4.82;;;23.90;47.90;;;;;;5031985;28;45404;-60
2020/12/13 11:19:49;;;;;;;6.90;4.18;;;23.90;47.90;;;;;;5032530;28;47034;-59
2020/12/13 11:22:14;;;;;;;7.45;4.15;;;23.90;48.30;;;;;;5032044;28;45375;-62
2020/12/13 11:24:40;;;;;;;7.07;4.47;;;23.80;48.40;;;;;;5027306;28;45487;-63
2020/12/13 11:27:07;;;;;;;6.40;4.05;;;23.90;48.20;;;;;;5032621;28;45374;-63
2020/12/13 11:29:34;;;;;;;6.60;3.75;;;23.90;48.40;;;;;;5069586;28;46151;-66
2020/12/13 11:32:00;;;;;;;6.78;3.65;;;24.00;48.20;;;;;;5071423;28;45516;-69
2020/12/13 11:34:25;;;;;;;7.22;3.80;;;24.10;48.10;;;;;;5032683;28;45371;-73
2020/12/13 11:36:51;;;;;;;7.25;3.42;;;24.10;47.90;;;;;;5032957;28;45426;-68
2020/12/13 11:39:17;;;;;;;7.03;3.58;;;24.20;47.80;;;;;;5022537;28;45503;-67
2020/12/13 11:41:43;;;;;;;6.15;3.95;;;24.30;47.80;;;;;;5029087;28;45293;-69
2020/12/13 11:44:08;;;;;;;8.13;4.50;;;24.30;47.60;;;;;;5069507;28;45339;-67
2020/12/13 11:46:34;;;;;;;9.23;4.28;;;24.40;47.50;;;;;;5060281;28;45582;-65
2020/12/13 11:48:59;;;;;;;7.88;4.43;;;24.40;47.40;;;;;;5043207;28;47171;-63
2020/12/13 11:51:25;;;;;;;8.02;3.53;;;24.50;47.30;;;;;;5030752;28;45443;-65
2020/12/13 11:53:51;;;;;;;8.73;4.18;;;24.50;47.20;;;;;;5053606;28;45448;-64
2020/12/13 11:56:23;;;;;;;6.47;3.92;;;24.50;47.10;;;;;;5040024;28;45518;-65
2020/12/13 11:58:48;;;;;;;6.40;3.67;;;24.50;47.00;;;;;;5060918;28;46042;-68
2020/12/13 12:01:14;;;;;;;6.53;4.13;;;24.50;47.00;;;;;;5040553;28;45504;-73
2020/12/13 12:03:40;;;;;;;5.65;3.17;;;24.50;46.80;;;;;;5023349;28;45287;-71
2020/12/13 12:06:10;;;;;;;5.65;3.67;;;24.60;46.90;;;;;;5049112;28;45558;-70
2020/12/13 12:08:35;;;;;;;5.38;3.33;;;24.60;46.80;;;;;;5031766;28;47022;-69
2020/12/13 12:11:01;;;;;;;5.20;3.65;;;24.60;47.10;;;;;;5032108;28;45335;-70
2020/12/13 12:13:27;;;;;;;6.70;3.60;;;24.60;46.80;;;;;;5047887;28;45509;-71
2020/12/13 12:15:52;;;;;;;6.07;3.25;;;24.60;47.20;;;;;;5034461;28;45447;-62
2020/12/13 12:18:18;;;;;;;7.13;3.97;;;24.50;46.90;;;;;;5036313;28;47775;-64
2020/12/13 12:20:43;;;;;;;7.68;4.10;;;24.30;47.30;;;;;;5047974;28;45482;-69
2020/12/13 12:23:09;;;;;;;5.43;3.67;;;24.30;47.40;;;;;;5055530;28;45441;-60
2020/12/13 12:25:36;;;;;;;10.00;4.05;;;24.30;47.30;;;;;;5048795;28;45307;-66
2020/12/13 12:28:02;;;;;;;7.40;4.00;;;24.20;47.40;;;;;;5029893;28;47039;-65
2020/12/13 12:30:28;;;;;;;5.43;3.38;;;24.20;47.30;;;;;;5031500;28;45248;-67
2020/12/13 12:32:53;;;;;;;6.50;3.90;;;24.30;47.20;;;;;;5028392;28;45378;-63
2020/12/13 12:35:19;;;;;;;8.05;3.70;;;24.20;47.20;;;;;;5047897;28;45579;-63
2020/12/13 12:37:45;;;;;;;6.68;3.60;;;24.20;47.20;;;;;;5048926;28;46996;-64
2020/12/13 12:40:10;;;;;;;8.55;3.65;;;24.20;47.10;;;;;;5014338;28;45423;-64
2020/12/13 12:42:36;;;;;;;4.22;2.97;;;24.20;47.10;;;;;;5011615;28;45284;-66
2020/12/13 12:45:02;;;;;;;4.57;3.28;;;24.20;47.00;;;;;;5012191;28;45532;-66
2020/12/13 12:47:28;;;;;;;5.50;3.30;;;24.20;47.00;;;;;;5009862;28;47094;-60
2020/12/13 12:49:53;;;;;;;5.95;3.28;;;24.10;47.20;;;;;;5033810;28;45414;-64
2020/12/13 12:52:19;;;;;;;6.32;3.22;;;24.00;47.40;;;;;;5038091;28;45928;-64
2020/12/13 12:54:45;;;;;;;5.50;3.75;;;24.10;47.20;;;;;;5041003;28;45603;-64
2020/12/13 12:57:11;;;;;;;4.85;3.28;;;24.10;47.10;;;;;;5018731;28;46191;-67
2020/12/13 12:59:50;;;;;;;5.35;3.58;;;24.20;46.90;;;;;;5037331;28;45242;-66
2020/12/13 13:02:16;;;;;;;5.80;3.65;;;24.20;46.90;;;;;;5022081;28;45355;-66